Fresnal Canyon, Arizona
Current Conditions -  °F | °C
As of 7:46 PM on Saturday 24 Jan 2015 (Local Time) from KRYN Reporting Station
Clear Clear  
Wind Chill: 59°   Ceiling: Unl
Heat Index: 59°   Visibility: 10mi
Dew Point: 12°   Wind: 5mph
Humidity: 16%   Direction: 130°SE
Pressure: 30.07"   Gusts: NA
Location:  32.0925°N, 112.129°W
Report Text: KRYN 250246Z 13004KT 10SM CLR 15/M11 A3007
Loading
Personal Weather Stations






























Interactive Weather Map New forecast layout! Learn more

10-Day Weather Forecast

Advertisements
Track Severe Weather on mobile